createdAt,value
2023-05-16T00:00:51.840Z,1012.79
2023-05-16T00:01:51.969Z,1012.81
2023-05-16T00:02:51.956Z,1012.82
2023-05-16T00:03:51.930Z,1012.87
2023-05-16T00:04:51.773Z,1012.81
2023-05-16T00:05:52.102Z,1012.87
2023-05-16T00:06:51.753Z,1012.92
2023-05-16T00:07:51.754Z,1012.92
2023-05-16T00:08:51.735Z,1012.94
2023-05-16T00:09:52.558Z,1012.95
2023-05-16T00:10:51.709Z,1012.89
2023-05-16T00:11:51.726Z,1012.95
2023-05-16T00:12:51.686Z,1012.92
2023-05-16T00:13:51.691Z,1012.96
2023-05-16T00:14:51.686Z,1012.92
2023-05-16T00:15:51.650Z,1012.91
2023-05-16T00:16:52.315Z,1012.87
2023-05-16T00:17:51.713Z,1012.97
2023-05-16T00:18:51.656Z,1012.92
2023-05-16T00:19:51.638Z,1012.97
2023-05-16T00:20:51.605Z,1012.96
2023-05-16T00:21:51.586Z,1013.00
2023-05-16T00:22:51.585Z,1013.00
2023-05-16T00:23:51.586Z,1013.03
2023-05-16T00:24:51.570Z,1013.01
2023-05-16T00:25:51.558Z,1012.98
2023-05-16T00:26:51.570Z,1012.97
2023-05-16T00:27:51.525Z,1013.02
2023-05-16T00:28:51.537Z,1012.99
2023-05-16T00:29:51.523Z,1013.02
2023-05-16T00:30:51.515Z,1013.07
2023-05-16T00:31:51.498Z,1013.05
2023-05-16T00:32:51.496Z,1013.03
2023-05-16T00:33:51.488Z,1013.05
2023-05-16T00:34:51.509Z,1013.07
2023-05-16T00:35:51.461Z,1013.06
2023-05-16T00:36:51.426Z,1013.06
2023-05-16T00:37:51.497Z,1013.06
2023-05-16T00:38:51.423Z,1013.08
2023-05-16T00:39:51.405Z,1013.08
2023-05-16T00:40:51.387Z,1013.04
2023-05-16T00:41:51.364Z,1013.08
2023-05-16T00:42:51.436Z,1013.06
2023-05-16T00:43:51.925Z,1013.06
2023-05-16T00:44:51.338Z,1013.10
2023-05-16T00:45:52.382Z,1013.10
2023-05-16T00:46:51.367Z,1013.10
2023-05-16T00:47:51.362Z,1013.09
2023-05-16T00:48:51.339Z,1013.11
2023-05-16T00:49:51.315Z,1013.09
2023-05-16T00:50:52.284Z,1013.15
2023-05-16T00:51:51.273Z,1013.07
2023-05-16T00:52:51.276Z,1013.07
2023-05-16T00:53:51.266Z,1013.13
2023-05-16T00:54:51.235Z,1013.12
2023-05-16T00:55:51.216Z,1013.14
2023-05-16T00:56:51.193Z,1013.13
2023-05-16T00:57:51.183Z,1013.13
2023-05-16T00:58:51.196Z,1013.13
2023-05-16T00:59:51.228Z,1013.14
2023-05-16T01:00:51.142Z,1013.12
2023-05-16T01:01:51.250Z,1013.16
2023-05-16T01:02:51.188Z,1013.19
2023-05-16T01:03:51.425Z,1013.18
2023-05-16T01:04:51.109Z,1013.19
2023-05-16T01:05:51.140Z,1013.19
2023-05-16T01:06:51.112Z,1013.18
2023-05-16T01:07:51.071Z,1013.18
2023-05-16T01:08:51.115Z,1013.22
2023-05-16T01:09:51.081Z,1013.21
2023-05-16T01:10:51.052Z,1013.15
2023-05-16T01:11:51.032Z,1013.22
2023-05-16T01:12:51.313Z,1013.27
2023-05-16T01:13:51.079Z,1013.28
2023-05-16T01:14:51.005Z,1013.26
2023-05-16T01:15:51.121Z,1013.29
2023-05-16T01:16:50.965Z,1013.27
2023-05-16T01:17:50.998Z,1013.29
2023-05-16T01:18:51.005Z,1013.29
2023-05-16T01:19:50.972Z,1013.28
2023-05-16T01:20:50.918Z,1013.27
2023-05-16T01:21:52.095Z,1013.32
2023-05-16T01:22:50.904Z,1013.33
2023-05-16T01:23:50.940Z,1013.27
2023-05-16T01:24:50.870Z,1013.30
2023-05-16T01:25:50.956Z,1013.34
2023-05-16T01:26:50.853Z,1013.36
2023-05-16T01:27:50.835Z,1013.35
2023-05-16T01:28:50.846Z,1013.41
2023-05-16T01:29:50.818Z,1013.46
2023-05-16T01:30:50.864Z,1013.42
2023-05-16T01:31:50.828Z,1013.39
2023-05-16T01:32:50.872Z,1013.41
2023-05-16T01:33:50.794Z,1013.43
2023-05-16T01:34:51.176Z,1013.46
2023-05-16T01:35:50.808Z,1013.47
2023-05-16T01:36:50.744Z,1013.47
2023-05-16T01:37:50.744Z,1013.48
2023-05-16T01:38:50.723Z,1013.47
2023-05-16T01:39:50.767Z,1013.44
2023-05-16T01:40:52.106Z,1013.47
2023-05-16T01:41:50.717Z,1013.40
2023-05-16T01:42:50.682Z,1013.42
2023-05-16T01:43:50.683Z,1013.46
2023-05-16T01:44:50.754Z,1013.42
2023-05-16T01:45:50.925Z,1013.44
2023-05-16T01:46:52.161Z,1013.46
2023-05-16T01:47:50.658Z,1013.49
2023-05-16T01:48:50.614Z,1013.49
2023-05-16T01:49:50.607Z,1013.54
2023-05-16T01:50:50.705Z,1013.52
2023-05-16T01:51:50.609Z,1013.58
2023-05-16T01:52:50.596Z,1013.55
2023-05-16T01:53:50.615Z,1013.58
2023-05-16T01:54:50.539Z,1013.55
2023-05-16T01:55:50.698Z,1013.66
2023-05-16T01:56:50.515Z,1013.67
2023-05-16T01:57:50.527Z,1013.62
2023-05-16T01:58:50.506Z,1013.64
2023-05-16T01:59:50.513Z,1013.71
2023-05-16T02:00:50.497Z,1013.69
2023-05-16T02:01:50.447Z,1013.75
2023-05-16T02:02:51.287Z,1013.69
2023-05-16T02:03:51.937Z,1013.71
2023-05-16T02:04:50.438Z,1013.74
2023-05-16T02:05:50.426Z,1013.76
2023-05-16T02:06:50.392Z,1013.74
2023-05-16T02:07:51.189Z,1013.79
2023-05-16T02:08:50.380Z,1013.80
2023-05-16T02:09:50.461Z,1013.80
2023-05-16T02:10:50.356Z,1013.78
2023-05-16T02:11:50.348Z,1013.77
2023-05-16T02:12:50.353Z,1013.73
2023-05-16T02:13:50.334Z,1013.80
2023-05-16T02:14:50.305Z,1013.83
2023-05-16T02:15:50.338Z,1013.77
2023-05-16T02:16:50.333Z,1013.78
2023-05-16T02:17:50.319Z,1013.78
2023-05-16T02:18:50.289Z,1013.80
2023-05-16T02:19:50.292Z,1013.76
2023-05-16T02:20:50.252Z,1013.82
2023-05-16T02:21:50.237Z,1013.84
2023-05-16T02:22:50.223Z,1013.79
2023-05-16T02:23:50.215Z,1013.81
2023-05-16T02:24:50.217Z,1013.80
2023-05-16T02:25:50.343Z,1013.81
2023-05-16T02:26:50.323Z,1013.82
2023-05-16T02:27:50.168Z,1013.89
2023-05-16T02:28:50.154Z,1013.90
2023-05-16T02:29:50.175Z,1013.90
2023-05-16T02:30:50.181Z,1013.87
2023-05-16T02:31:50.149Z,1013.89
2023-05-16T02:32:50.187Z,1013.97
2023-05-16T02:33:50.087Z,1013.88
2023-05-16T02:34:50.151Z,1013.93
2023-05-16T02:35:50.098Z,1013.90
2023-05-16T02:36:50.076Z,1013.93
2023-05-16T02:37:50.048Z,1013.93
2023-05-16T02:38:51.123Z,1013.93
2023-05-16T02:39:50.031Z,1013.97
2023-05-16T02:40:50.058Z,1013.98
2023-05-16T02:41:50.019Z,1014.04
2023-05-16T02:42:50.790Z,1014.03
2023-05-16T02:43:50.047Z,1014.04
2023-05-16T02:44:49.985Z,1014.06
2023-05-16T02:45:50.011Z,1014.05
2023-05-16T02:46:50.047Z,1014.07
2023-05-16T02:47:51.435Z,1014.07
2023-05-16T02:48:49.931Z,1014.09
2023-05-16T02:49:49.927Z,1014.08
2023-05-16T02:50:51.368Z,1014.15
2023-05-16T02:51:49.911Z,1014.15
2023-05-16T02:52:49.916Z,1014.17
2023-05-16T02:53:51.136Z,1014.19
2023-05-16T02:55:09.343Z,1014.21
2023-05-16T02:55:51.010Z,1014.21
2023-05-16T02:56:49.867Z,1014.20
2023-05-16T02:57:49.829Z,1014.23
2023-05-16T02:58:51.276Z,1014.22
2023-05-16T02:59:49.799Z,1014.25
2023-05-16T03:00:49.825Z,1014.27
2023-05-16T03:01:49.830Z,1014.31
2023-05-16T03:02:51.212Z,1014.34
2023-05-16T03:03:49.954Z,1014.35
2023-05-16T03:04:49.753Z,1014.37
2023-05-16T03:05:49.746Z,1014.37
2023-05-16T03:06:49.742Z,1014.35
2023-05-16T03:07:49.704Z,1014.33
2023-05-16T03:08:49.729Z,1014.34
2023-05-16T03:09:49.717Z,1014.36
2023-05-16T03:10:49.684Z,1014.41
2023-05-16T03:11:49.672Z,1014.41
2023-05-16T03:12:49.835Z,1014.43
2023-05-16T03:13:49.647Z,1014.50
2023-05-16T03:14:51.112Z,1014.42
2023-05-16T03:15:50.617Z,1014.50
2023-05-16T03:16:51.089Z,1014.42
2023-05-16T03:17:49.670Z,1014.44
2023-05-16T03:18:49.627Z,1014.49
2023-05-16T03:19:49.571Z,1014.48
2023-05-16T03:20:49.571Z,1014.49
2023-05-16T03:21:51.024Z,1014.44
2023-05-16T03:22:49.605Z,1014.46
2023-05-16T03:23:49.566Z,1014.49
2023-05-16T03:24:49.603Z,1014.46
2023-05-16T03:25:49.545Z,1014.55
2023-05-16T03:26:49.533Z,1014.54
2023-05-16T03:27:49.558Z,1014.59
2023-05-16T03:28:49.512Z,1014.56
2023-05-16T03:29:49.591Z,1014.55
2023-05-16T03:30:49.474Z,1014.55
2023-05-16T03:31:50.275Z,1014.58
2023-05-16T03:32:50.930Z,1014.57
2023-05-16T03:33:49.563Z,1014.55
2023-05-16T03:34:49.417Z,1014.58
2023-05-16T03:35:50.844Z,1014.56
2023-05-16T03:36:49.454Z,1014.58
2023-05-16T03:37:49.386Z,1014.55
2023-05-16T03:38:51.337Z,1014.61
2023-05-16T03:39:49.349Z,1014.64
2023-05-16T03:40:50.158Z,1014.63
2023-05-16T03:41:50.793Z,1014.62
2023-05-16T03:42:50.173Z,1014.63
2023-05-16T03:43:49.543Z,1014.64
2023-05-16T03:44:49.503Z,1014.63
2023-05-16T03:45:49.618Z,1014.71
2023-05-16T03:46:50.738Z,1014.75
2023-05-16T03:47:49.343Z,1014.70
2023-05-16T03:48:49.589Z,1014.74
2023-05-16T03:49:50.217Z,1014.74
2023-05-16T03:50:50.718Z,1014.75
2023-05-16T03:51:49.990Z,1014.73
2023-05-16T03:52:50.700Z,1014.80
2023-05-16T03:53:49.196Z,1014.73
2023-05-16T03:54:50.686Z,1014.80
2023-05-16T03:55:50.205Z,1014.91
2023-05-16T03:56:50.681Z,1014.82
2023-05-16T03:57:49.321Z,1014.89
2023-05-16T03:58:49.183Z,1014.88
2023-05-16T03:59:50.568Z,1014.95
2023-05-16T04:00:49.111Z,1014.92
2023-05-16T04:01:49.189Z,1014.97
2023-05-16T04:02:49.481Z,1014.94
2023-05-16T04:03:49.067Z,1014.99
2023-05-16T04:04:49.269Z,1014.99
2023-05-16T04:05:49.516Z,1014.99
2023-05-16T04:06:49.086Z,1014.95
2023-05-16T04:07:49.048Z,1015.04
2023-05-16T04:08:49.088Z,1015.01
2023-05-16T04:09:49.513Z,1015.00
2023-05-16T04:10:49.070Z,1015.05
2023-05-16T04:11:49.668Z,1015.06
2023-05-16T04:12:48.997Z,1015.08
2023-05-16T04:13:49.038Z,1015.06
2023-05-16T04:14:48.994Z,1015.06
2023-05-16T04:15:49.039Z,1015.10
2023-05-16T04:16:49.033Z,1015.09
2023-05-16T04:17:49.010Z,1015.10
2023-05-16T04:18:48.939Z,1015.12
2023-05-16T04:19:48.901Z,1015.13
2023-05-16T04:20:48.906Z,1015.20
2023-05-16T04:21:48.921Z,1015.12
2023-05-16T04:22:48.881Z,1015.16
2023-05-16T04:23:48.846Z,1015.18
2023-05-16T04:24:49.050Z,1015.17
2023-05-16T04:25:48.821Z,1015.16
2023-05-16T04:26:50.301Z,1015.20
2023-05-16T04:27:48.836Z,1015.21
2023-05-16T04:28:48.803Z,1015.25
2023-05-16T04:29:49.773Z,1015.19
2023-05-16T04:30:50.398Z,1015.22
2023-05-16T04:31:50.351Z,1015.23
2023-05-16T04:32:48.819Z,1015.20
2023-05-16T04:33:49.590Z,1015.33
2023-05-16T04:34:48.786Z,1015.31
2023-05-16T04:35:50.175Z,1015.28
2023-05-16T04:36:48.764Z,1015.31
2023-05-16T04:37:50.174Z,1015.29
2023-05-16T04:38:48.704Z,1015.28
2023-05-16T04:39:48.989Z,1015.31
2023-05-16T04:40:49.652Z,1015.35
2023-05-16T04:41:49.207Z,1015.36
2023-05-16T04:42:48.665Z,1015.38
2023-05-16T04:43:50.093Z,1015.39
2023-05-16T04:44:48.661Z,1015.38
2023-05-16T04:45:48.625Z,1015.43
2023-05-16T04:46:49.065Z,1015.41
2023-05-16T04:47:48.652Z,1015.44
2023-05-16T04:48:48.622Z,1015.46
2023-05-16T04:49:49.452Z,1015.43
2023-05-16T04:50:49.564Z,1015.46
2023-05-16T04:51:48.670Z,1015.48
2023-05-16T04:52:48.576Z,1015.52
2023-05-16T04:53:48.529Z,1015.51
2023-05-16T04:54:48.566Z,1015.54
2023-05-16T04:55:48.550Z,1015.54
2023-05-16T04:56:49.454Z,1015.59
2023-05-16T04:57:49.355Z,1015.59
2023-05-16T04:58:48.548Z,1015.53
2023-05-16T04:59:48.473Z,1015.57
2023-05-16T05:00:48.457Z,1015.61
2023-05-16T05:01:49.481Z,1015.57
2023-05-16T05:02:49.947Z,1015.58
2023-05-16T05:03:48.810Z,1015.58
2023-05-16T05:04:49.433Z,1015.61
2023-05-16T05:05:49.868Z,1015.69
2023-05-16T05:06:48.405Z,1015.59
2023-05-16T05:07:48.369Z,1015.63
2023-05-16T05:08:48.433Z,1015.63
2023-05-16T05:09:48.398Z,1015.60
2023-05-16T05:10:48.417Z,1015.61
2023-05-16T05:11:48.334Z,1015.63
2023-05-16T05:12:48.323Z,1015.63
2023-05-16T05:13:51.979Z,1015.62
2023-05-16T05:14:49.255Z,1015.63
2023-05-16T05:15:49.253Z,1015.64
2023-05-16T05:16:49.241Z,1015.60
2023-05-16T05:17:48.522Z,1015.59
2023-05-16T05:18:48.327Z,1015.59
2023-05-16T05:19:48.400Z,1015.68
2023-05-16T05:20:48.248Z,1015.65
2023-05-16T05:21:48.204Z,1015.62
2023-05-16T05:22:49.185Z,1015.65
2023-05-16T05:23:48.202Z,1015.66
2023-05-16T05:24:48.188Z,1015.70
2023-05-16T05:25:48.196Z,1015.66
2023-05-16T05:26:48.168Z,1015.69
2023-05-16T05:27:49.116Z,1015.76
2023-05-16T05:29:01.204Z,1015.73
2023-05-16T05:29:49.141Z,1015.79
2023-05-16T05:30:48.130Z,1015.81
2023-05-16T05:31:48.442Z,1015.83
2023-05-16T05:32:49.573Z,1015.87
2023-05-16T05:33:49.637Z,1015.82
2023-05-16T05:34:48.083Z,1015.84
2023-05-16T05:35:48.058Z,1015.88
2023-05-16T05:36:48.137Z,1015.84
2023-05-16T05:37:48.875Z,1015.90
2023-05-16T05:38:48.090Z,1015.88
2023-05-16T05:39:48.073Z,1015.89
2023-05-16T05:40:47.992Z,1015.88
2023-05-16T05:41:47.982Z,1015.91
2023-05-16T05:42:49.447Z,1015.83
2023-05-16T05:43:47.987Z,1015.88
2023-05-16T05:44:48.003Z,1015.95
2023-05-16T05:45:47.988Z,1015.94
2023-05-16T05:46:48.017Z,1015.99
2023-05-16T05:47:48.931Z,1016.00
2023-05-16T05:48:47.926Z,1016.02
2023-05-16T05:49:47.929Z,1015.99
2023-05-16T05:50:48.713Z,1015.96
2023-05-16T05:51:49.337Z,1016.00
2023-05-16T05:52:47.868Z,1015.98
2023-05-16T05:53:47.990Z,1015.97
2023-05-16T05:54:47.854Z,1015.98
2023-05-16T05:55:47.922Z,1016.04
2023-05-16T05:56:47.877Z,1016.02
2023-05-16T05:57:47.862Z,1015.99
2023-05-16T05:58:47.799Z,1015.98
2023-05-16T05:59:47.783Z,1016.01
2023-05-16T06:00:47.774Z,1015.94
2023-05-16T06:01:48.120Z,1015.95
2023-05-16T06:02:47.941Z,1016.09
2023-05-16T06:03:47.771Z,1015.96
2023-05-16T06:04:47.740Z,1015.98
2023-05-16T06:05:47.742Z,1016.02
2023-05-16T06:06:49.179Z,1016.05
2023-05-16T06:07:48.661Z,1016.06
2023-05-16T06:08:47.690Z,1016.05
2023-05-16T06:09:48.708Z,1016.04
2023-05-16T06:10:47.661Z,1016.07
2023-05-16T06:11:48.028Z,1016.05
2023-05-16T06:12:47.638Z,1016.03
2023-05-16T06:13:47.631Z,1016.07
2023-05-16T06:14:49.123Z,1016.09
2023-05-16T06:15:48.396Z,1016.12
2023-05-16T06:16:47.784Z,1016.12
2023-05-16T06:17:47.671Z,1016.11
2023-05-16T06:18:47.594Z,1016.15
2023-05-16T06:19:47.563Z,1016.12
2023-05-16T06:20:47.551Z,1016.16
2023-05-16T06:21:47.573Z,1016.16
2023-05-16T06:22:47.535Z,1016.18
2023-05-16T06:23:47.525Z,1016.19
2023-05-16T06:24:47.521Z,1016.22
2023-05-16T06:25:47.484Z,1016.22
2023-05-16T06:26:47.496Z,1016.23
2023-05-16T06:27:48.311Z,1016.22
2023-05-16T06:28:47.460Z,1016.22
2023-05-16T06:29:47.445Z,1016.29
2023-05-16T06:30:47.484Z,1016.24
2023-05-16T06:31:47.466Z,1016.24
2023-05-16T06:32:48.943Z,1016.32
2023-05-16T06:33:47.447Z,1016.32
2023-05-16T06:34:48.012Z,1016.28
2023-05-16T06:35:48.234Z,1016.30
2023-05-16T06:36:48.373Z,1016.30
2023-05-16T06:37:47.405Z,1016.31
2023-05-16T06:38:48.315Z,1016.33
2023-05-16T06:39:47.348Z,1016.36
2023-05-16T06:40:48.794Z,1016.40
2023-05-16T06:41:47.772Z,1016.27
2023-05-16T06:42:47.318Z,1016.32
2023-05-16T06:43:49.267Z,1016.24
2023-05-16T06:44:47.463Z,1016.29
2023-05-16T06:45:48.842Z,1016.27
2023-05-16T06:46:49.269Z,1016.31
2023-05-16T06:47:49.280Z,1016.31
2023-05-16T06:48:47.341Z,1016.30
2023-05-16T06:49:47.282Z,1016.29
2023-05-16T06:50:47.209Z,1016.31
2023-05-16T06:51:47.358Z,1016.32
2023-05-16T06:52:49.167Z,1016.34
2023-05-16T06:53:47.174Z,1016.31
2023-05-16T06:54:49.167Z,1016.35
2023-05-16T06:55:47.235Z,1016.32
2023-05-16T06:56:47.290Z,1016.30
2023-05-16T06:57:47.168Z,1016.31
2023-05-16T06:58:47.996Z,1016.39
2023-05-16T06:59:47.132Z,1016.32
2023-05-16T07:00:47.109Z,1016.33
2023-05-16T07:01:49.158Z,1016.32
2023-05-16T07:02:47.193Z,1016.34
2023-05-16T07:03:47.266Z,1016.31
2023-05-16T07:04:47.113Z,1016.38
2023-05-16T07:05:47.912Z,1016.31
2023-05-16T07:06:49.012Z,1016.33
2023-05-16T07:07:47.551Z,1016.35
2023-05-16T07:08:47.090Z,1016.29
2023-05-16T07:09:47.841Z,1016.38
2023-05-16T07:10:47.044Z,1016.30
2023-05-16T07:11:48.960Z,1016.42
2023-05-16T07:12:47.841Z,1016.38
2023-05-16T07:13:48.942Z,1016.47
2023-05-16T07:14:46.937Z,1016.42
2023-05-16T07:15:48.912Z,1016.37
2023-05-16T07:16:46.990Z,1016.37
2023-05-16T07:17:46.942Z,1016.45
2023-05-16T07:18:47.821Z,1016.47
2023-05-16T07:19:49.365Z,1016.44
2023-05-16T07:20:48.847Z,1016.41
2023-05-16T07:21:47.905Z,1016.44
2023-05-16T07:22:47.310Z,1016.39
2023-05-16T07:23:46.863Z,1016.42
2023-05-16T07:24:47.401Z,1016.40
2023-05-16T07:25:46.881Z,1016.47
2023-05-16T07:26:47.803Z,1016.38
2023-05-16T07:27:46.848Z,1016.41
2023-05-16T07:28:46.846Z,1016.50
2023-05-16T07:29:46.828Z,1016.52
2023-05-16T07:30:46.815Z,1016.52
2023-05-16T07:31:48.847Z,1016.44
2023-05-16T07:32:48.746Z,1016.52
2023-05-16T07:33:47.598Z,1016.46
2023-05-16T07:34:46.717Z,1016.49
2023-05-16T07:35:48.687Z,1016.50
2023-05-16T07:36:46.695Z,1016.46
2023-05-16T07:37:48.670Z,1016.55
2023-05-16T07:38:47.653Z,1016.45
2023-05-16T07:39:46.704Z,1016.52
2023-05-16T07:40:46.693Z,1016.50
2023-05-16T07:41:46.658Z,1016.55
2023-05-16T07:42:48.604Z,1016.46
2023-05-16T07:43:46.663Z,1016.51
2023-05-16T07:44:48.562Z,1016.53
2023-05-16T07:45:46.625Z,1016.54
2023-05-16T07:46:48.560Z,1016.54
2023-05-16T07:47:46.612Z,1016.51
2023-05-16T07:48:47.346Z,1016.46
2023-05-16T07:49:48.506Z,1016.44
2023-05-16T07:50:46.530Z,1016.53
2023-05-16T07:51:48.496Z,1016.50
2023-05-16T07:52:48.465Z,1016.55
2023-05-16T07:53:46.529Z,1016.59
2023-05-16T07:54:47.345Z,1016.55
2023-05-16T07:55:48.457Z,1016.58
2023-05-16T07:56:48.457Z,1016.56
2023-05-16T07:57:47.986Z,1016.63
2023-05-16T07:58:48.423Z,1016.62
2023-05-16T07:59:46.481Z,1016.63
2023-05-16T08:00:48.369Z,1016.58
2023-05-16T08:01:48.384Z,1016.62
2023-05-16T08:02:48.483Z,1016.61
2023-05-16T08:03:47.224Z,1016.54
2023-05-16T08:04:46.978Z,1016.60
2023-05-16T08:05:48.348Z,1016.64
2023-05-16T08:06:48.308Z,1016.62
2023-05-16T08:07:46.335Z,1016.67
2023-05-16T08:08:46.375Z,1016.60
2023-05-16T08:09:46.391Z,1016.61
2023-05-16T08:10:46.349Z,1016.61
2023-05-16T08:11:46.314Z,1016.67
2023-05-16T08:12:46.317Z,1016.65
2023-05-16T08:13:46.289Z,1016.64
2023-05-16T08:14:46.321Z,1016.69
2023-05-16T08:15:46.360Z,1016.72
2023-05-16T08:16:46.447Z,1016.65
2023-05-16T08:17:46.318Z,1016.63
2023-05-16T08:18:46.252Z,1016.67
2023-05-16T08:19:46.203Z,1016.71
2023-05-16T08:20:46.330Z,1016.68
2023-05-16T08:21:46.190Z,1016.67
2023-05-16T08:22:46.179Z,1016.64
2023-05-16T08:23:46.193Z,1016.66
2023-05-16T08:24:47.108Z,1016.70
2023-05-16T08:25:46.398Z,1016.62
2023-05-16T08:26:46.167Z,1016.69
2023-05-16T08:27:46.123Z,1016.66
2023-05-16T08:28:47.584Z,1016.65
2023-05-16T08:29:46.114Z,1016.69
2023-05-16T08:30:48.057Z,1016.66
2023-05-16T08:31:46.205Z,1016.65
2023-05-16T08:32:47.540Z,1016.64
2023-05-16T08:33:47.097Z,1016.64
2023-05-16T08:34:46.873Z,1016.61
2023-05-16T08:35:46.409Z,1016.68
2023-05-16T08:36:46.017Z,1016.73
2023-05-16T08:37:46.022Z,1016.62
2023-05-16T08:38:46.016Z,1016.69
2023-05-16T08:39:47.484Z,1016.67
2023-05-16T08:40:45.975Z,1016.70
2023-05-16T08:41:46.134Z,1016.67
2023-05-16T08:42:46.462Z,1016.65
2023-05-16T08:43:45.967Z,1016.66
2023-05-16T08:44:45.938Z,1016.75
2023-05-16T08:45:46.719Z,1016.72
2023-05-16T08:46:45.971Z,1016.74
2023-05-16T08:47:45.947Z,1016.71
2023-05-16T08:48:45.886Z,1016.71
2023-05-16T08:49:46.803Z,1016.66
2023-05-16T08:50:46.718Z,1016.61
2023-05-16T08:51:47.331Z,1016.59
2023-05-16T08:52:45.855Z,1016.63
2023-05-16T08:53:45.844Z,1016.63
2023-05-16T08:54:50.336Z,1016.59
2023-05-16T08:55:48.789Z,1016.71
2023-05-16T08:56:45.783Z,1016.70
2023-05-16T08:57:45.817Z,1016.72
2023-05-16T08:58:45.767Z,1016.67
2023-05-16T08:59:46.641Z,1016.62
2023-05-16T09:00:45.810Z,1016.60
2023-05-16T09:01:45.954Z,1016.63
2023-05-16T09:02:45.763Z,1016.71
2023-05-16T09:03:45.827Z,1016.77
2023-05-16T09:04:45.799Z,1016.67
2023-05-16T09:05:45.775Z,1016.66
2023-05-16T09:06:46.650Z,1016.72
2023-05-16T09:07:45.682Z,1016.69
2023-05-16T09:08:47.142Z,1016.73
2023-05-16T09:09:47.134Z,1016.71
2023-05-16T09:10:45.674Z,1016.72
2023-05-16T09:11:45.655Z,1016.73
2023-05-16T09:12:45.818Z,1016.74
2023-05-16T09:13:46.448Z,1016.83
2023-05-16T09:14:46.427Z,1016.67
2023-05-16T09:15:46.365Z,1016.66
2023-05-16T09:16:47.081Z,1016.59
2023-05-16T09:17:45.728Z,1016.70
2023-05-16T09:18:47.107Z,1016.67
2023-05-16T09:19:45.601Z,1016.63
2023-05-16T09:20:45.592Z,1016.60
2023-05-16T09:21:45.568Z,1016.63
2023-05-16T09:22:45.503Z,1016.64
2023-05-16T09:23:46.319Z,1016.65
2023-05-16T09:24:45.497Z,1016.62
2023-05-16T09:25:46.317Z,1016.64
2023-05-16T09:26:45.491Z,1016.63
2023-05-16T09:27:45.456Z,1016.62
2023-05-16T09:28:45.443Z,1016.61
2023-05-16T09:29:45.454Z,1016.56
2023-05-16T09:30:45.490Z,1016.64
2023-05-16T09:31:45.465Z,1016.58
2023-05-16T09:32:50.223Z,1016.61
2023-05-16T09:33:45.452Z,1016.59
2023-05-16T09:34:45.368Z,1016.54
2023-05-16T09:35:47.236Z,1016.52
2023-05-16T09:36:46.823Z,1016.56
2023-05-16T09:37:45.359Z,1016.54
2023-05-16T09:38:45.322Z,1016.50
2023-05-16T09:39:45.330Z,1016.54
2023-05-16T09:40:45.585Z,1016.43
2023-05-16T09:41:45.311Z,1016.44
2023-05-16T09:42:45.295Z,1016.46
2023-05-16T09:43:45.289Z,1016.45
2023-05-16T09:44:45.274Z,1016.51
2023-05-16T09:45:45.307Z,1016.47
2023-05-16T09:46:46.109Z,1016.44
2023-05-16T09:47:45.443Z,1016.50
2023-05-16T09:48:45.202Z,1016.55
2023-05-16T09:49:45.205Z,1016.53
2023-05-16T09:50:46.671Z,1016.52
2023-05-16T09:51:46.006Z,1016.56
2023-05-16T09:52:46.625Z,1016.54
2023-05-16T09:53:45.192Z,1016.55
2023-05-16T09:54:45.152Z,1016.49
2023-05-16T09:55:46.669Z,1016.53
2023-05-16T09:56:46.609Z,1016.63
2023-05-16T09:57:45.103Z,1016.57
2023-05-16T09:58:46.561Z,1016.55
2023-05-16T09:59:45.921Z,1016.55
2023-05-16T10:00:45.073Z,1016.52
2023-05-16T10:01:45.133Z,1016.54
2023-05-16T10:02:45.093Z,1016.52
2023-05-16T10:03:45.253Z,1016.55
2023-05-16T10:04:46.043Z,1016.52
2023-05-16T10:05:46.579Z,1016.53
2023-05-16T10:06:45.025Z,1016.59
2023-05-16T10:07:45.019Z,1016.63
2023-05-16T10:08:44.985Z,1016.60
2023-05-16T10:09:44.986Z,1016.64
2023-05-16T10:10:44.999Z,1016.61
2023-05-16T10:11:44.965Z,1016.55
2023-05-16T10:12:44.923Z,1016.61
2023-05-16T10:13:44.934Z,1016.54
2023-05-16T10:14:44.903Z,1016.59
2023-05-16T10:15:44.927Z,1016.59
2023-05-16T10:16:44.975Z,1016.65
2023-05-16T10:17:44.912Z,1016.60
2023-05-16T10:18:44.932Z,1016.66
2023-05-16T10:19:44.861Z,1016.56
2023-05-16T10:20:44.841Z,1016.62
2023-05-16T10:21:44.875Z,1016.61
2023-05-16T10:22:44.839Z,1016.61
2023-05-16T10:23:44.877Z,1016.60
2023-05-16T10:24:44.834Z,1016.63
2023-05-16T10:25:44.796Z,1016.73
2023-05-16T10:26:46.265Z,1016.72
2023-05-16T10:27:44.770Z,1016.70
2023-05-16T10:28:44.797Z,1016.69
2023-05-16T10:29:54.240Z,1016.74
2023-05-16T10:30:46.590Z,1016.70
2023-05-16T10:31:45.391Z,1016.71
2023-05-16T10:32:44.776Z,1016.72
2023-05-16T10:33:44.770Z,1016.63
2023-05-16T10:34:44.712Z,1016.70
2023-05-16T10:35:44.706Z,1016.65
2023-05-16T10:36:46.368Z,1016.63
2023-05-16T10:37:45.505Z,1016.67
2023-05-16T10:38:44.676Z,1016.66
2023-05-16T10:39:45.439Z,1016.66
2023-05-16T10:40:44.646Z,1016.67
2023-05-16T10:41:44.619Z,1016.73
2023-05-16T10:42:46.368Z,1016.70
2023-05-16T10:43:45.437Z,1016.70
2023-05-16T10:44:54.594Z,1016.67
2023-05-16T10:45:45.619Z,1016.68
2023-05-16T10:46:44.543Z,1016.69
2023-05-16T10:47:44.564Z,1016.63
2023-05-16T10:48:44.559Z,1016.57
2023-05-16T10:49:44.568Z,1016.63
2023-05-16T10:50:46.367Z,1016.62
2023-05-16T10:51:44.534Z,1016.54
2023-05-16T10:52:44.499Z,1016.53
2023-05-16T10:53:46.407Z,1016.51
2023-05-16T10:54:46.389Z,1016.53
2023-05-16T10:55:45.271Z,1016.48
2023-05-16T10:56:44.470Z,1016.59
2023-05-16T10:57:44.443Z,1016.57
2023-05-16T10:58:44.478Z,1016.61
2023-05-16T10:59:44.498Z,1016.57
2023-05-16T11:00:45.194Z,1016.59
2023-05-16T11:01:44.560Z,1016.52
2023-05-16T11:02:46.470Z,1016.53
2023-05-16T11:03:44.462Z,1016.55
2023-05-16T11:04:44.347Z,1016.48
2023-05-16T11:05:45.396Z,1016.57
2023-05-16T11:06:44.446Z,1016.49
2023-05-16T11:07:44.318Z,1016.44
2023-05-16T11:08:44.299Z,1016.39
2023-05-16T11:09:44.499Z,1016.37
2023-05-16T11:10:44.277Z,1016.34
2023-05-16T11:11:47.223Z,1016.41
2023-05-16T11:12:44.385Z,1016.35
2023-05-16T11:13:46.242Z,1016.35
2023-05-16T11:14:44.252Z,1016.40
2023-05-16T11:15:44.248Z,1016.36
2023-05-16T11:16:46.193Z,1016.43
2023-05-16T11:17:46.333Z,1016.44
2023-05-16T11:18:44.219Z,1016.48
2023-05-16T11:19:44.195Z,1016.49
2023-05-16T11:20:44.962Z,1016.48
2023-05-16T11:21:44.150Z,1016.54
2023-05-16T11:22:44.167Z,1016.50
2023-05-16T11:23:44.130Z,1016.49
2023-05-16T11:24:44.128Z,1016.51
2023-05-16T11:25:44.167Z,1016.45
2023-05-16T11:26:44.108Z,1016.46
2023-05-16T11:27:44.889Z,1016.50
2023-05-16T11:28:46.047Z,1016.46
2023-05-16T11:29:46.024Z,1016.54
2023-05-16T11:30:44.121Z,1016.52
2023-05-16T11:31:44.096Z,1016.51
2023-05-16T11:32:46.033Z,1016.46
2023-05-16T11:33:45.542Z,1016.49
2023-05-16T11:34:44.017Z,1016.49
2023-05-16T11:35:44.025Z,1016.50
2023-05-16T11:36:43.987Z,1016.61
2023-05-16T11:37:45.973Z,1016.54
2023-05-16T11:38:45.039Z,1016.57
2023-05-16T11:39:44.013Z,1016.63
2023-05-16T11:40:46.408Z,1016.58
2023-05-16T11:41:47.219Z,1016.64
2023-05-16T11:42:43.929Z,1016.63
2023-05-16T11:43:43.915Z,1016.75
2023-05-16T11:44:43.941Z,1016.78
2023-05-16T11:45:43.885Z,1016.81
2023-05-16T11:46:45.951Z,1016.82
2023-05-16T11:47:43.907Z,1016.85
2023-05-16T11:48:44.092Z,1016.87
2023-05-16T11:49:43.871Z,1016.87
2023-05-16T11:50:43.874Z,1016.94
2023-05-16T11:51:45.792Z,1016.91
2023-05-16T11:52:45.784Z,1016.87
2023-05-16T11:53:45.776Z,1016.82
2023-05-16T11:54:43.802Z,1016.81
2023-05-16T11:55:48.275Z,1016.81
2023-05-16T11:56:43.797Z,1016.81
2023-05-16T11:57:43.749Z,1016.79
2023-05-16T11:58:45.729Z,1016.80
2023-05-16T11:59:43.749Z,1016.78
2023-05-16T12:00:43.764Z,1016.69
2023-05-16T12:01:45.666Z,1016.77
2023-05-16T12:02:43.954Z,1016.79
2023-05-16T12:03:44.123Z,1016.79
2023-05-16T12:04:45.790Z,1016.79
2023-05-16T12:05:44.057Z,1016.75